sensor_id;sensor_type;location;lat;lon;timestamp;P1;durP1;ratioP1;P2;durP2;ratioP2
22144;SDS011;11238;48.730;11.566;2023-04-25T00:00:46;4.75;;;3.30;;
22144;SDS011;11238;48.730;11.566;2023-04-25T00:03:12;4.22;;;3.20;;
22144;SDS011;11238;48.730;11.566;2023-04-25T00:05:39;3.58;;;2.90;;
22144;SDS011;11238;48.730;11.566;2023-04-25T00:08:05;4.63;;;3.05;;
22144;SDS011;11238;48.730;11.566;2023-04-25T00:10:31;3.05;;;2.70;;
22144;SDS011;11238;48.730;11.566;2023-04-25T00:12:56;2.95;;;2.65;;
22144;SDS011;11238;48.730;11.566;2023-04-25T00:15:22;3.92;;;2.95;;
22144;SDS011;11238;48.730;11.566;2023-04-25T00:17:49;3.80;;;2.78;;
22144;SDS011;11238;48.730;11.566;2023-04-25T00:20:17;3.92;;;2.95;;
22144;SDS011;11238;48.730;11.566;2023-04-25T00:22:43;4.78;;;2.70;;
22144;SDS011;11238;48.730;11.566;2023-04-25T00:25:09;3.78;;;2.90;;
22144;SDS011;11238;48.730;11.566;2023-04-25T00:27:35;4.78;;;2.85;;
22144;SDS011;11238;48.730;11.566;2023-04-25T00:30:01;3.72;;;3.10;;
22144;SDS011;11238;48.730;11.566;2023-04-25T00:32:26;3.80;;;2.72;;
22144;SDS011;11238;48.730;11.566;2023-04-25T00:34:52;4.55;;;2.90;;
22144;SDS011;11238;48.730;11.566;2023-04-25T00:37:18;4.45;;;2.88;;
22144;SDS011;11238;48.730;11.566;2023-04-25T00:39:44;3.67;;;2.60;;
22144;SDS011;11238;48.730;11.566;2023-04-25T00:42:11;2.97;;;2.67;;
22144;SDS011;11238;48.730;11.566;2023-04-25T00:44:37;3.40;;;3.00;;
22144;SDS011;11238;48.730;11.566;2023-04-25T00:47:03;3.92;;;2.80;;
22144;SDS011;11238;48.730;11.566;2023-04-25T00:49:30;4.97;;;2.72;;
22144;SDS011;11238;48.730;11.566;2023-04-25T00:51:56;3.92;;;2.90;;
22144;SDS011;11238;48.730;11.566;2023-04-25T00:54:22;3.78;;;2.90;;
22144;SDS011;11238;48.730;11.566;2023-04-25T00:56:48;6.78;;;3.22;;
22144;SDS011;11238;48.730;11.566;2023-04-25T00:59:14;4.10;;;2.50;;
22144;SDS011;11238;48.730;11.566;2023-04-25T01:01:41;2.97;;;2.70;;
22144;SDS011;11238;48.730;11.566;2023-04-25T01:04:07;5.13;;;2.95;;
22144;SDS011;11238;48.730;11.566;2023-04-25T01:06:36;6.53;;;2.70;;
22144;SDS011;11238;48.730;11.566;2023-04-25T01:09:01;3.58;;;3.00;;
22144;SDS011;11238;48.730;11.566;2023-04-25T01:11:30;5.40;;;3.10;;
22144;SDS011;11238;48.730;11.566;2023-04-25T01:13:56;4.22;;;3.00;;
22144;SDS011;11238;48.730;11.566;2023-04-25T01:16:22;6.47;;;3.20;;
22144;SDS011;11238;48.730;11.566;2023-04-25T01:18:49;5.45;;;3.03;;
22144;SDS011;11238;48.730;11.566;2023-04-25T01:21:16;6.75;;;3.10;;
22144;SDS011;11238;48.730;11.566;2023-04-25T01:23:44;3.55;;;2.92;;
22144;SDS011;11238;48.730;11.566;2023-04-25T01:26:10;3.70;;;3.17;;
22144;SDS011;11238;48.730;11.566;2023-04-25T01:28:38;3.95;;;2.80;;
22144;SDS011;11238;48.730;11.566;2023-04-25T01:31:08;3.47;;;3.00;;
22144;SDS011;11238;48.730;11.566;2023-04-25T01:33:34;5.50;;;3.17;;
22144;SDS011;11238;48.730;11.566;2023-04-25T01:36:01;6.15;;;3.53;;
22144;SDS011;11238;48.730;11.566;2023-04-25T01:38:27;5.32;;;2.97;;
22144;SDS011;11238;48.730;11.566;2023-04-25T01:40:53;4.18;;;2.90;;
22144;SDS011;11238;48.730;11.566;2023-04-25T01:43:20;4.22;;;2.80;;
22144;SDS011;11238;48.730;11.566;2023-04-25T01:45:46;5.30;;;3.10;;
22144;SDS011;11238;48.730;11.566;2023-04-25T01:48:13;3.30;;;2.72;;
22144;SDS011;11238;48.730;11.566;2023-04-25T01:50:39;5.18;;;3.40;;
22144;SDS011;11238;48.730;11.566;2023-04-25T01:53:06;3.58;;;2.92;;
22144;SDS011;11238;48.730;11.566;2023-04-25T01:55:34;3.92;;;2.90;;
22144;SDS011;11238;48.730;11.566;2023-04-25T01:58:04;2.88;;;2.53;;
22144;SDS011;11238;48.730;11.566;2023-04-25T02:00:52;5.40;;;2.85;;
22144;SDS011;11238;48.730;11.566;2023-04-25T02:03:18;3.13;;;2.60;;
22144;SDS011;11238;48.730;11.566;2023-04-25T02:05:44;4.20;;;2.70;;
22144;SDS011;11238;48.730;11.566;2023-04-25T02:08:13;5.82;;;3.00;;
22144;SDS011;11238;48.730;11.566;2023-04-25T02:10:39;3.22;;;2.88;;
22144;SDS011;11238;48.730;11.566;2023-04-25T02:13:17;3.58;;;2.70;;
22144;SDS011;11238;48.730;11.566;2023-04-25T02:16:05;5.03;;;3.00;;
22144;SDS011;11238;48.730;11.566;2023-04-25T02:18:31;5.55;;;3.53;;
22144;SDS011;11238;48.730;11.566;2023-04-25T02:20:58;6.22;;;3.00;;
22144;SDS011;11238;48.730;11.566;2023-04-25T02:23:25;5.85;;;2.80;;
22144;SDS011;11238;48.730;11.566;2023-04-25T02:25:51;4.72;;;3.05;;
22144;SDS011;11238;48.730;11.566;2023-04-25T02:28:18;4.43;;;2.80;;
22144;SDS011;11238;48.730;11.566;2023-04-25T02:30:44;5.80;;;2.97;;
22144;SDS011;11238;48.730;11.566;2023-04-25T02:33:09;4.30;;;3.00;;
22144;SDS011;11238;48.730;11.566;2023-04-25T02:35:35;5.85;;;3.13;;
22144;SDS011;11238;48.730;11.566;2023-04-25T02:38:02;6.40;;;3.38;;
22144;SDS011;11238;48.730;11.566;2023-04-25T02:40:27;4.47;;;3.42;;
22144;SDS011;11238;48.730;11.566;2023-04-25T02:42:53;4.32;;;3.38;;
22144;SDS011;11238;48.730;11.566;2023-04-25T02:45:19;4.97;;;3.50;;
22144;SDS011;11238;48.730;11.566;2023-04-25T02:47:45;7.10;;;3.30;;
22144;SDS011;11238;48.730;11.566;2023-04-25T02:50:11;3.47;;;3.00;;
22144;SDS011;11238;48.730;11.566;2023-04-25T02:52:38;3.92;;;3.40;;
22144;SDS011;11238;48.730;11.566;2023-04-25T02:55:12;4.53;;;3.22;;
22144;SDS011;11238;48.730;11.566;2023-04-25T02:57:38;4.22;;;3.13;;
22144;SDS011;11238;48.730;11.566;2023-04-25T03:00:05;6.55;;;3.78;;
22144;SDS011;11238;48.730;11.566;2023-04-25T03:02:32;6.20;;;3.42;;
22144;SDS011;11238;48.730;11.566;2023-04-25T03:04:58;5.25;;;3.50;;
22144;SDS011;11238;48.730;11.566;2023-04-25T03:07:23;3.95;;;3.35;;
22144;SDS011;11238;48.730;11.566;2023-04-25T03:09:50;3.72;;;3.30;;
22144;SDS011;11238;48.730;11.566;2023-04-25T03:12:15;3.95;;;3.20;;
22144;SDS011;11238;48.730;11.566;2023-04-25T03:14:42;3.78;;;3.38;;
22144;SDS011;11238;48.730;11.566;2023-04-25T03:17:08;6.07;;;3.75;;
22144;SDS011;11238;48.730;11.566;2023-04-25T03:19:34;6.78;;;3.38;;
22144;SDS011;11238;48.730;11.566;2023-04-25T03:22:00;5.05;;;3.10;;
22144;SDS011;11238;48.730;11.566;2023-04-25T03:24:26;4.28;;;3.30;;
22144;SDS011;11238;48.730;11.566;2023-04-25T03:26:53;5.40;;;3.72;;
22144;SDS011;11238;48.730;11.566;2023-04-25T03:29:19;4.35;;;3.45;;
22144;SDS011;11238;48.730;11.566;2023-04-25T03:31:50;7.78;;;3.92;;
22144;SDS011;11238;48.730;11.566;2023-04-25T03:34:16;6.38;;;3.83;;
22144;SDS011;11238;48.730;11.566;2023-04-25T03:36:43;6.00;;;3.85;;
22144;SDS011;11238;48.730;11.566;2023-04-25T03:39:09;4.68;;;3.67;;
22144;SDS011;11238;48.730;11.566;2023-04-25T03:41:36;4.72;;;4.03;;
22144;SDS011;11238;48.730;11.566;2023-04-25T03:44:07;7.53;;;4.43;;
22144;SDS011;11238;48.730;11.566;2023-04-25T03:46:55;5.55;;;4.28;;
22144;SDS011;11238;48.730;11.566;2023-04-25T03:49:22;6.97;;;4.28;;
22144;SDS011;11238;48.730;11.566;2023-04-25T03:51:57;6.80;;;4.40;;
22144;SDS011;11238;48.730;11.566;2023-04-25T03:54:23;5.20;;;4.07;;
22144;SDS011;11238;48.730;11.566;2023-04-25T03:56:56;6.47;;;4.35;;
22144;SDS011;11238;48.730;11.566;2023-04-25T03:59:25;6.13;;;4.63;;
22144;SDS011;11238;48.730;11.566;2023-04-25T04:01:52;5.40;;;4.13;;
22144;SDS011;11238;48.730;11.566;2023-04-25T04:04:18;7.00;;;4.20;;
22144;SDS011;11238;48.730;11.566;2023-04-25T04:06:44;5.32;;;4.32;;
22144;SDS011;11238;48.730;11.566;2023-04-25T04:09:20;4.93;;;3.92;;
22144;SDS011;11238;48.730;11.566;2023-04-25T04:11:46;5.45;;;4.10;;
22144;SDS011;11238;48.730;11.566;2023-04-25T04:14:12;9.07;;;4.47;;
22144;SDS011;11238;48.730;11.566;2023-04-25T04:16:42;7.97;;;4.28;;
22144;SDS011;11238;48.730;11.566;2023-04-25T04:19:08;5.90;;;4.40;;
22144;SDS011;11238;48.730;11.566;2023-04-25T04:21:35;7.45;;;4.72;;
22144;SDS011;11238;48.730;11.566;2023-04-25T04:24:02;8.07;;;4.28;;
22144;SDS011;11238;48.730;11.566;2023-04-25T04:26:36;6.30;;;4.20;;
22144;SDS011;11238;48.730;11.566;2023-04-25T04:29:11;6.18;;;4.63;;
22144;SDS011;11238;48.730;11.566;2023-04-25T04:31:40;9.13;;;4.47;;
22144;SDS011;11238;48.730;11.566;2023-04-25T04:34:06;5.82;;;4.25;;
22144;SDS011;11238;48.730;11.566;2023-04-25T04:36:34;6.18;;;4.50;;
22144;SDS011;11238;48.730;11.566;2023-04-25T04:39:00;8.15;;;4.78;;
22144;SDS011;11238;48.730;11.566;2023-04-25T04:41:42;11.52;;;4.88;;
22144;SDS011;11238;48.730;11.566;2023-04-25T04:44:12;11.88;;;4.85;;
22144;SDS011;11238;48.730;11.566;2023-04-25T04:47:00;8.40;;;5.00;;
22144;SDS011;11238;48.730;11.566;2023-04-25T04:49:36;5.88;;;4.80;;
22144;SDS011;11238;48.730;11.566;2023-04-25T04:52:17;6.13;;;5.03;;
22144;SDS011;11238;48.730;11.566;2023-04-25T04:55:03;8.23;;;5.35;;
22144;SDS011;11238;48.730;11.566;2023-04-25T04:58:04;6.28;;;4.95;;
22144;SDS011;11238;48.730;11.566;2023-04-25T05:00:50;7.38;;;5.18;;
22144;SDS011;11238;48.730;11.566;2023-04-25T05:03:32;7.22;;;5.18;;
22144;SDS011;11238;48.730;11.566;2023-04-25T05:06:19;8.00;;;4.93;;
22144;SDS011;11238;48.730;11.566;2023-04-25T05:09:06;8.57;;;5.35;;
22144;SDS011;11238;48.730;11.566;2023-04-25T05:11:51;7.95;;;5.35;;
22144;SDS011;11238;48.730;11.566;2023-04-25T05:14:26;10.50;;;5.70;;
22144;SDS011;11238;48.730;11.566;2023-04-25T05:17:27;8.02;;;5.75;;
22144;SDS011;11238;48.730;11.566;2023-04-25T05:20:12;8.32;;;5.72;;
22144;SDS011;11238;48.730;11.566;2023-04-25T05:23:02;6.63;;;5.22;;
22144;SDS011;11238;48.730;11.566;2023-04-25T05:25:49;7.85;;;5.45;;
22144;SDS011;11238;48.730;11.566;2023-04-25T05:28:40;7.75;;;5.60;;
22144;SDS011;11238;48.730;11.566;2023-04-25T05:31:27;8.43;;;5.95;;
22144;SDS011;11238;48.730;11.566;2023-04-25T05:34:00;9.98;;;5.65;;
22144;SDS011;11238;48.730;11.566;2023-04-25T05:36:38;10.35;;;5.80;;
22144;SDS011;11238;48.730;11.566;2023-04-25T05:39:04;8.85;;;5.65;;
22144;SDS011;11238;48.730;11.566;2023-04-25T05:42:00;10.90;;;5.95;;
22144;SDS011;11238;48.730;11.566;2023-04-25T05:44:59;7.75;;;5.10;;
22144;SDS011;11238;48.730;11.566;2023-04-25T05:47:45;8.90;;;5.75;;
22144;SDS011;11238;48.730;11.566;2023-04-25T05:50:16;8.18;;;5.32;;
22144;SDS011;11238;48.730;11.566;2023-04-25T05:52:49;11.93;;;5.68;;
22144;SDS011;11238;48.730;11.566;2023-04-25T05:55:37;6.10;;;4.93;;
22144;SDS011;11238;48.730;11.566;2023-04-25T05:58:19;8.25;;;5.10;;
22144;SDS011;11238;48.730;11.566;2023-04-25T06:00:45;7.03;;;5.72;;
22144;SDS011;11238;48.730;11.566;2023-04-25T06:03:11;6.05;;;4.78;;
22144;SDS011;11238;48.730;11.566;2023-04-25T06:05:41;5.72;;;5.03;;
22144;SDS011;11238;48.730;11.566;2023-04-25T06:08:07;8.02;;;4.93;;
22144;SDS011;11238;48.730;11.566;2023-04-25T06:10:34;8.45;;;5.07;;
22144;SDS011;11238;48.730;11.566;2023-04-25T06:12:59;7.60;;;5.15;;
22144;SDS011;11238;48.730;11.566;2023-04-25T06:15:26;7.38;;;5.53;;
22144;SDS011;11238;48.730;11.566;2023-04-25T06:17:52;8.18;;;5.28;;
22144;SDS011;11238;48.730;11.566;2023-04-25T06:20:18;7.57;;;5.35;;
22144;SDS011;11238;48.730;11.566;2023-04-25T06:22:48;6.97;;;5.80;;
22144;SDS011;11238;48.730;11.566;2023-04-25T06:25:15;6.90;;;5.22;;
22144;SDS011;11238;48.730;11.566;2023-04-25T06:27:41;8.50;;;5.50;;
22144;SDS011;11238;48.730;11.566;2023-04-25T06:30:08;6.45;;;5.40;;
22144;SDS011;11238;48.730;11.566;2023-04-25T06:32:35;10.15;;;5.28;;
22144;SDS011;11238;48.730;11.566;2023-04-25T06:35:01;11.75;;;5.10;;
22144;SDS011;11238;48.730;11.566;2023-04-25T06:37:27;7.40;;;5.00;;
22144;SDS011;11238;48.730;11.566;2023-04-25T06:39:55;8.75;;;5.18;;
22144;SDS011;11238;48.730;11.566;2023-04-25T06:42:20;9.80;;;5.15;;
22144;SDS011;11238;48.730;11.566;2023-04-25T06:44:57;11.15;;;5.13;;
22144;SDS011;11238;48.730;11.566;2023-04-25T06:47:23;9.50;;;5.40;;
22144;SDS011;11238;48.730;11.566;2023-04-25T06:49:52;8.15;;;5.07;;
22144;SDS011;11238;48.730;11.566;2023-04-25T06:52:19;9.90;;;5.10;;
22144;SDS011;11238;48.730;11.566;2023-04-25T06:54:46;7.95;;;4.65;;
22144;SDS011;11238;48.730;11.566;2023-04-25T06:57:24;5.72;;;4.88;;
22144;SDS011;11238;48.730;11.566;2023-04-25T06:59:49;6.68;;;4.68;;
22144;SDS011;11238;48.730;11.566;2023-04-25T07:02:15;7.60;;;4.93;;
22144;SDS011;11238;48.730;11.566;2023-04-25T07:04:42;6.25;;;4.85;;
22144;SDS011;11238;48.730;11.566;2023-04-25T07:07:08;7.47;;;4.80;;
22144;SDS011;11238;48.730;11.566;2023-04-25T07:09:56;6.32;;;4.78;;
22144;SDS011;11238;48.730;11.566;2023-04-25T07:12:23;10.48;;;4.70;;
22144;SDS011;11238;48.730;11.566;2023-04-25T07:14:49;6.70;;;4.15;;
22144;SDS011;11238;48.730;11.566;2023-04-25T07:17:15;7.45;;;4.75;;
22144;SDS011;11238;48.730;11.566;2023-04-25T07:19:42;8.82;;;4.80;;
22144;SDS011;11238;48.730;11.566;2023-04-25T07:22:08;6.28;;;4.43;;
22144;SDS011;11238;48.730;11.566;2023-04-25T07:24:37;5.70;;;4.43;;
22144;SDS011;11238;48.730;11.566;2023-04-25T07:27:04;6.30;;;4.72;;
22144;SDS011;11238;48.730;11.566;2023-04-25T07:29:42;8.18;;;4.50;;
22144;SDS011;11238;48.730;11.566;2023-04-25T07:32:09;7.43;;;4.28;;
22144;SDS011;11238;48.730;11.566;2023-04-25T07:34:37;8.15;;;4.15;;
22144;SDS011;11238;48.730;11.566;2023-04-25T07:37:04;6.32;;;4.18;;
22144;SDS011;11238;48.730;11.566;2023-04-25T07:39:37;9.27;;;4.00;;
22144;SDS011;11238;48.730;11.566;2023-04-25T07:42:04;5.25;;;3.80;;
22144;SDS011;11238;48.730;11.566;2023-04-25T07:44:34;9.60;;;4.03;;
22144;SDS011;11238;48.730;11.566;2023-04-25T07:47:09;5.30;;;3.65;;
22144;SDS011;11238;48.730;11.566;2023-04-25T07:49:39;5.75;;;3.80;;
22144;SDS011;11238;48.730;11.566;2023-04-25T07:52:05;7.25;;;3.75;;
22144;SDS011;11238;48.730;11.566;2023-04-25T07:54:34;6.60;;;4.38;;
22144;SDS011;11238;48.730;11.566;2023-04-25T07:57:07;7.55;;;4.13;;
22144;SDS011;11238;48.730;11.566;2023-04-25T07:59:35;6.45;;;4.10;;
22144;SDS011;11238;48.730;11.566;2023-04-25T08:02:02;4.68;;;3.92;;
22144;SDS011;11238;48.730;11.566;2023-04-25T08:04:28;6.55;;;4.32;;
22144;SDS011;11238;48.730;11.566;2023-04-25T08:07:15;6.90;;;4.50;;
22144;SDS011;11238;48.730;11.566;2023-04-25T08:09:50;6.20;;;3.90;;
22144;SDS011;11238;48.730;11.566;2023-04-25T08:12:23;5.55;;;3.78;;
22144;SDS011;11238;48.730;11.566;2023-04-25T08:14:50;6.93;;;4.05;;
22144;SDS011;11238;48.730;11.566;2023-04-25T08:17:15;7.18;;;3.75;;
22144;SDS011;11238;48.730;11.566;2023-04-25T08:19:41;6.80;;;4.68;;
22144;SDS011;11238;48.730;11.566;2023-04-25T08:22:14;6.18;;;4.10;;
22144;SDS011;11238;48.730;11.566;2023-04-25T08:24:49;7.05;;;4.20;;
22144;SDS011;11238;48.730;11.566;2023-04-25T08:27:37;7.00;;;3.80;;
22144;SDS011;11238;48.730;11.566;2023-04-25T08:30:05;5.55;;;4.03;;
22144;SDS011;11238;48.730;11.566;2023-04-25T08:32:31;6.15;;;4.20;;
22144;SDS011;11238;48.730;11.566;2023-04-25T08:35:14;5.90;;;3.92;;
22144;SDS011;11238;48.730;11.566;2023-04-25T08:37:44;5.70;;;3.88;;
22144;SDS011;11238;48.730;11.566;2023-04-25T08:40:14;7.32;;;4.05;;
22144;SDS011;11238;48.730;11.566;2023-04-25T08:43:12;7.72;;;4.03;;
22144;SDS011;11238;48.730;11.566;2023-04-25T08:45:41;7.28;;;4.15;;
22144;SDS011;11238;48.730;11.566;2023-04-25T08:48:12;8.68;;;4.22;;
22144;SDS011;11238;48.730;11.566;2023-04-25T08:50:53;6.38;;;4.00;;
22144;SDS011;11238;48.730;11.566;2023-04-25T08:53:31;6.63;;;4.18;;
22144;SDS011;11238;48.730;11.566;2023-04-25T08:56:02;6.20;;;3.60;;
22144;SDS011;11238;48.730;11.566;2023-04-25T08:58:32;7.47;;;3.85;;
22144;SDS011;11238;48.730;11.566;2023-04-25T09:00:59;5.78;;;3.70;;
22144;SDS011;11238;48.730;11.566;2023-04-25T09:03:27;7.53;;;3.60;;
22144;SDS011;11238;48.730;11.566;2023-04-25T09:05:53;7.38;;;3.70;;
22144;SDS011;11238;48.730;11.566;2023-04-25T09:08:20;5.93;;;3.30;;
22144;SDS011;11238;48.730;11.566;2023-04-25T09:10:46;4.88;;;3.70;;
22144;SDS011;11238;48.730;11.566;2023-04-25T09:13:13;4.22;;;3.30;;
22144;SDS011;11238;48.730;11.566;2023-04-25T09:16:14;4.20;;;3.70;;
22144;SDS011;11238;48.730;11.566;2023-04-25T09:19:02;4.60;;;3.83;;
22144;SDS011;11238;48.730;11.566;2023-04-25T09:21:28;6.97;;;3.75;;
22144;SDS011;11238;48.730;11.566;2023-04-25T09:23:56;4.68;;;3.50;;
22144;SDS011;11238;48.730;11.566;2023-04-25T09:26:23;6.30;;;3.70;;
22144;SDS011;11238;48.730;11.566;2023-04-25T09:29:00;6.63;;;3.80;;
22144;SDS011;11238;48.730;11.566;2023-04-25T09:31:50;4.03;;;3.47;;
22144;SDS011;11238;48.730;11.566;2023-04-25T09:34:16;3.65;;;3.13;;
22144;SDS011;11238;48.730;11.566;2023-04-25T09:39:50;3.58;;;3.17;;
22144;SDS011;11238;48.730;11.566;2023-04-25T09:44:54;1.20;;;1.10;;
22144;SDS011;11238;48.730;11.566;2023-04-25T09:47:22;1.17;;;0.90;;
22144;SDS011;11238;48.730;11.566;2023-04-25T09:49:49;2.30;;;1.00;;
22144;SDS011;11238;48.730;11.566;2023-04-25T09:52:19;1.27;;;1.17;;
22144;SDS011;11238;48.730;11.566;2023-04-25T09:54:59;1.88;;;1.30;;
22144;SDS011;11238;48.730;11.566;2023-04-25T09:57:31;1.50;;;1.40;;
22144;SDS011;11238;48.730;11.566;2023-04-25T09:59:57;2.25;;;1.30;;
22144;SDS011;11238;48.730;11.566;2023-04-25T10:02:29;1.33;;;1.23;;
22144;SDS011;11238;48.730;11.566;2023-04-25T10:05:02;1.40;;;1.20;;
22144;SDS011;11238;48.730;11.566;2023-04-25T10:07:37;1.33;;;1.23;;
22144;SDS011;11238;48.730;11.566;2023-04-25T10:10:07;1.55;;;1.45;;
22144;SDS011;11238;48.730;11.566;2023-04-25T10:12:37;1.45;;;1.35;;
22144;SDS011;11238;48.730;11.566;2023-04-25T10:15:05;1.33;;;1.23;;
22144;SDS011;11238;48.730;11.566;2023-04-25T10:17:34;1.60;;;1.50;;
22144;SDS011;11238;48.730;11.566;2023-04-25T10:20:01;1.92;;;1.73;;
22144;SDS011;11238;48.730;11.566;2023-04-25T10:22:34;2.50;;;1.60;;
22144;SDS011;11238;48.730;11.566;2023-04-25T10:25:02;1.42;;;1.33;;
22144;SDS011;11238;48.730;11.566;2023-04-25T10:27:29;1.40;;;1.30;;
22144;SDS011;11238;48.730;11.566;2023-04-25T10:30:09;1.40;;;1.30;;
22144;SDS011;11238;48.730;11.566;2023-04-25T10:32:43;1.80;;;1.70;;
22144;SDS011;11238;48.730;11.566;2023-04-25T10:35:14;2.10;;;1.90;;
22144;SDS011;11238;48.730;11.566;2023-04-25T10:37:57;2.38;;;2.17;;
22144;SDS011;11238;48.730;11.566;2023-04-25T10:40:24;2.50;;;2.30;;
22144;SDS011;11238;48.730;11.566;2023-04-25T10:42:51;2.92;;;2.30;;
22144;SDS011;11238;48.730;11.566;2023-04-25T10:45:18;3.10;;;2.58;;
22144;SDS011;11238;48.730;11.566;2023-04-25T10:47:45;2.78;;;2.58;;
22144;SDS011;11238;48.730;11.566;2023-04-25T10:50:11;4.05;;;2.50;;
22144;SDS011;11238;48.730;11.566;2023-04-25T10:52:39;2.55;;;2.35;;
22144;SDS011;11238;48.730;11.566;2023-04-25T10:55:05;4.45;;;2.70;;
22144;SDS011;11238;48.730;11.566;2023-04-25T11:00:19;4.47;;;2.42;;
22144;SDS011;11238;48.730;11.566;2023-04-25T11:02:51;2.92;;;2.50;;
22144;SDS011;11238;48.730;11.566;2023-04-25T11:07:58;4.57;;;2.40;;
22144;SDS011;11238;48.730;11.566;2023-04-25T11:10:25;2.80;;;2.60;;
22144;SDS011;11238;48.730;11.566;2023-04-25T11:12:56;3.80;;;2.80;;
22144;SDS011;11238;48.730;11.566;2023-04-25T11:15:22;3.60;;;3.05;;
22144;SDS011;11238;48.730;11.566;2023-04-25T11:17:50;4.80;;;3.30;;
22144;SDS011;11238;48.730;11.566;2023-04-25T11:20:17;3.63;;;2.80;;
22144;SDS011;11238;48.730;11.566;2023-04-25T11:22:44;3.63;;;3.00;;
22144;SDS011;11238;48.730;11.566;2023-04-25T11:25:12;5.07;;;2.80;;
22144;SDS011;11238;48.730;11.566;2023-04-25T11:27:52;3.75;;;2.50;;
22144;SDS011;11238;48.730;11.566;2023-04-25T11:30:47;2.58;;;2.38;;
22144;SDS011;11238;48.730;11.566;2023-04-25T11:35:43;2.97;;;2.40;;
22144;SDS011;11238;48.730;11.566;2023-04-25T11:38:15;5.32;;;2.50;;
22144;SDS011;11238;48.730;11.566;2023-04-25T11:40:42;4.40;;;3.00;;
22144;SDS011;11238;48.730;11.566;2023-04-25T11:43:08;3.25;;;2.28;;
22144;SDS011;11238;48.730;11.566;2023-04-25T11:45:36;4.97;;;2.20;;
22144;SDS011;11238;48.730;11.566;2023-04-25T11:48:02;2.35;;;2.03;;
22144;SDS011;11238;48.730;11.566;2023-04-25T11:50:29;2.50;;;2.30;;
22144;SDS011;11238;48.730;11.566;2023-04-25T11:52:56;2.60;;;2.35;;
22144;SDS011;11238;48.730;11.566;2023-04-25T11:55:22;3.22;;;2.30;;
22144;SDS011;11238;48.730;11.566;2023-04-25T11:57:49;2.80;;;2.33;;
22144;SDS011;11238;48.730;11.566;2023-04-25T12:00:18;3.50;;;2.47;;
22144;SDS011;11238;48.730;11.566;2023-04-25T12:02:46;3.65;;;2.75;;
22144;SDS011;11238;48.730;11.566;2023-04-25T12:05:19;4.43;;;2.60;;
22144;SDS011;11238;48.730;11.566;2023-04-25T12:07:46;3.42;;;2.60;;
22144;SDS011;11238;48.730;11.566;2023-04-25T12:10:13;3.05;;;2.30;;
22144;SDS011;11238;48.730;11.566;2023-04-25T12:12:41;3.67;;;2.20;;
22144;SDS011;11238;48.730;11.566;2023-04-25T12:15:17;4.43;;;2.55;;
22144;SDS011;11238;48.730;11.566;2023-04-25T12:17:49;3.30;;;1.95;;
22144;SDS011;11238;48.730;11.566;2023-04-25T12:20:18;2.03;;;1.80;;
22144;SDS011;11238;48.730;11.566;2023-04-25T12:22:49;3.28;;;2.25;;
22144;SDS011;11238;48.730;11.566;2023-04-25T12:28:18;2.35;;;2.13;;
22144;SDS011;11238;48.730;11.566;2023-04-25T12:31:08;2.90;;;2.42;;
22144;SDS011;11238;48.730;11.566;2023-04-25T12:33:35;4.00;;;2.20;;
22144;SDS011;11238;48.730;11.566;2023-04-25T12:36:03;4.75;;;2.08;;
22144;SDS011;11238;48.730;11.566;2023-04-25T12:38:40;2.70;;;2.28;;
22144;SDS011;11238;48.730;11.566;2023-04-25T12:41:09;3.85;;;2.53;;
22144;SDS011;11238;48.730;11.566;2023-04-25T12:43:35;4.57;;;2.40;;
22144;SDS011;11238;48.730;11.566;2023-04-25T12:46:02;3.38;;;2.70;;
22144;SDS011;11238;48.730;11.566;2023-04-25T12:48:28;6.97;;;2.60;;
22144;SDS011;11238;48.730;11.566;2023-04-25T12:50:54;3.92;;;2.67;;
22144;SDS011;11238;48.730;11.566;2023-04-25T12:53:20;3.38;;;2.97;;
22144;SDS011;11238;48.730;11.566;2023-04-25T12:55:50;3.88;;;2.83;;
22144;SDS011;11238;48.730;11.566;2023-04-25T12:58:16;5.30;;;2.60;;
22144;SDS011;11238;48.730;11.566;2023-04-25T13:00:43;3.95;;;2.80;;
22144;SDS011;11238;48.730;11.566;2023-04-25T13:03:09;3.85;;;2.60;;
22144;SDS011;11238;48.730;11.566;2023-04-25T13:05:36;3.28;;;2.70;;
22144;SDS011;11238;48.730;11.566;2023-04-25T13:08:02;4.22;;;2.90;;
22144;SDS011;11238;48.730;11.566;2023-04-25T13:10:30;5.07;;;2.92;;
22144;SDS011;11238;48.730;11.566;2023-04-25T13:12:55;3.75;;;3.10;;
22144;SDS011;11238;48.730;11.566;2023-04-25T13:15:22;3.85;;;2.67;;
22144;SDS011;11238;48.730;11.566;2023-04-25T13:17:48;4.10;;;2.60;;
22144;SDS011;11238;48.730;11.566;2023-04-25T13:20:15;4.43;;;2.30;;
22144;SDS011;11238;48.730;11.566;2023-04-25T13:22:41;4.00;;;2.58;;
22144;SDS011;11238;48.730;11.566;2023-04-25T13:25:08;3.33;;;2.20;;
22144;SDS011;11238;48.730;11.566;2023-04-25T13:27:34;2.65;;;2.00;;
22144;SDS011;11238;48.730;11.566;2023-04-25T13:30:04;3.70;;;2.55;;
22144;SDS011;11238;48.730;11.566;2023-04-25T13:32:37;5.28;;;2.38;;
22144;SDS011;11238;48.730;11.566;2023-04-25T13:35:03;5.10;;;2.75;;
22144;SDS011;11238;48.730;11.566;2023-04-25T13:37:37;6.63;;;2.40;;
22144;SDS011;11238;48.730;11.566;2023-04-25T13:40:03;4.95;;;2.80;;
22144;SDS011;11238;48.730;11.566;2023-04-25T13:42:35;3.05;;;2.40;;
22144;SDS011;11238;48.730;11.566;2023-04-25T13:45:02;4.18;;;2.90;;
22144;SDS011;11238;48.730;11.566;2023-04-25T13:47:29;3.20;;;2.55;;
22144;SDS011;11238;48.730;11.566;2023-04-25T13:49:56;5.25;;;2.80;;
22144;SDS011;11238;48.730;11.566;2023-04-25T13:52:22;4.40;;;2.45;;
22144;SDS011;11238;48.730;11.566;2023-04-25T13:54:55;6.53;;;3.00;;
22144;SDS011;11238;48.730;11.566;2023-04-25T13:57:20;6.50;;;3.38;;
22144;SDS011;11238;48.730;11.566;2023-04-25T13:59:46;4.00;;;3.00;;
22144;SDS011;11238;48.730;11.566;2023-04-25T14:02:13;3.00;;;2.60;;
22144;SDS011;11238;48.730;11.566;2023-04-25T14:04:39;4.80;;;2.90;;
22144;SDS011;11238;48.730;11.566;2023-04-25T14:07:05;4.68;;;3.30;;
22144;SDS011;11238;48.730;11.566;2023-04-25T14:09:31;3.15;;;2.80;;
22144;SDS011;11238;48.730;11.566;2023-04-25T14:11:58;3.75;;;3.10;;
22144;SDS011;11238;48.730;11.566;2023-04-25T14:14:25;4.88;;;3.22;;
22144;SDS011;11238;48.730;11.566;2023-04-25T14:16:51;4.30;;;2.88;;
22144;SDS011;11238;48.730;11.566;2023-04-25T14:19:20;5.00;;;3.63;;
22144;SDS011;11238;48.730;11.566;2023-04-25T14:21:46;3.80;;;3.45;;
22144;SDS011;11238;48.730;11.566;2023-04-25T14:24:12;3.65;;;3.35;;
22144;SDS011;11238;48.730;11.566;2023-04-25T14:26:39;3.60;;;3.13;;
22144;SDS011;11238;48.730;11.566;2023-04-25T14:29:06;4.75;;;3.13;;
22144;SDS011;11238;48.730;11.566;2023-04-25T14:31:32;5.32;;;3.70;;
22144;SDS011;11238;48.730;11.566;2023-04-25T14:33:59;5.60;;;3.75;;
22144;SDS011;11238;48.730;11.566;2023-04-25T14:36:25;4.18;;;3.78;;
22144;SDS011;11238;48.730;11.566;2023-04-25T14:38:52;3.90;;;3.50;;
22144;SDS011;11238;48.730;11.566;2023-04-25T14:41:18;10.88;;;6.47;;
22144;SDS011;11238;48.730;11.566;2023-04-25T14:43:44;20.90;;;10.57;;
22144;SDS011;11238;48.730;11.566;2023-04-25T14:46:10;31.48;;;15.90;;
22144;SDS011;11238;48.730;11.566;2023-04-25T14:48:37;27.13;;;14.10;;
22144;SDS011;11238;48.730;11.566;2023-04-25T14:51:10;9.02;;;4.95;;
22144;SDS011;11238;48.730;11.566;2023-04-25T14:53:36;5.53;;;3.15;;
22144;SDS011;11238;48.730;11.566;2023-04-25T14:56:02;4.15;;;2.72;;
22144;SDS011;11238;48.730;11.566;2023-04-25T14:58:28;7.47;;;2.30;;
22144;SDS011;11238;48.730;11.566;2023-04-25T15:00:54;5.55;;;2.00;;
22144;SDS011;11238;48.730;11.566;2023-04-25T15:03:20;2.55;;;1.98;;
22144;SDS011;11238;48.730;11.566;2023-04-25T15:05:47;3.08;;;2.05;;